sensor_id;sensor_type;location;lat;lon;timestamp;P1;durP1;ratioP1;P2;durP2;ratioP2
1344;SDS011;15375;48.540;9.268;2023-07-20T00:02:09;5.03;;;2.10;;
1344;SDS011;15375;48.540;9.268;2023-07-20T00:04:34;3.13;;;2.33;;
1344;SDS011;15375;48.540;9.268;2023-07-20T00:07:00;2.33;;;2.13;;
1344;SDS011;15375;48.540;9.268;2023-07-20T00:09:28;2.63;;;2.00;;
1344;SDS011;15375;48.540;9.268;2023-07-20T00:11:53;2.53;;;2.03;;
1344;SDS011;15375;48.540;9.268;2023-07-20T00:14:19;3.87;;;2.27;;
1344;SDS011;15375;48.540;9.268;2023-07-20T00:16:45;3.30;;;2.30;;
1344;SDS011;15375;48.540;9.268;2023-07-20T00:19:14;3.57;;;2.40;;
1344;SDS011;15375;48.540;9.268;2023-07-20T00:21:41;2.70;;;2.13;;
1344;SDS011;15375;48.540;9.268;2023-07-20T00:24:07;4.47;;;2.77;;
1344;SDS011;15375;48.540;9.268;2023-07-20T00:26:33;2.23;;;1.90;;
1344;SDS011;15375;48.540;9.268;2023-07-20T00:28:59;2.80;;;2.60;;
1344;SDS011;15375;48.540;9.268;2023-07-20T00:31:24;5.90;;;2.13;;
1344;SDS011;15375;48.540;9.268;2023-07-20T00:33:49;2.13;;;2.03;;
1344;SDS011;15375;48.540;9.268;2023-07-20T00:36:15;2.10;;;2.00;;
1344;SDS011;15375;48.540;9.268;2023-07-20T00:38:40;3.40;;;2.33;;
1344;SDS011;15375;48.540;9.268;2023-07-20T00:41:07;2.57;;;2.30;;
1344;SDS011;15375;48.540;9.268;2023-07-20T00:43:32;2.43;;;2.23;;
1344;SDS011;15375;48.540;9.268;2023-07-20T00:45:57;3.40;;;2.20;;
1344;SDS011;15375;48.540;9.268;2023-07-20T00:48:23;3.23;;;1.90;;
1344;SDS011;15375;48.540;9.268;2023-07-20T00:50:48;2.40;;;2.20;;
1344;SDS011;15375;48.540;9.268;2023-07-20T00:53:15;5.10;;;2.50;;
1344;SDS011;15375;48.540;9.268;2023-07-20T00:55:41;2.43;;;2.23;;
1344;SDS011;15375;48.540;9.268;2023-07-20T00:58:06;6.43;;;2.73;;
1344;SDS011;15375;48.540;9.268;2023-07-20T01:00:33;3.03;;;2.23;;
1344;SDS011;15375;48.540;9.268;2023-07-20T01:02:58;3.70;;;2.93;;
1344;SDS011;15375;48.540;9.268;2023-07-20T01:05:31;5.40;;;2.73;;
1344;SDS011;15375;48.540;9.268;2023-07-20T01:08:24;3.00;;;2.43;;
1344;SDS011;15375;48.540;9.268;2023-07-20T01:10:59;3.37;;;3.00;;
1344;SDS011;15375;48.540;9.268;2023-07-20T01:13:32;2.77;;;2.43;;
1344;SDS011;15375;48.540;9.268;2023-07-20T01:16:01;5.80;;;2.80;;
1344;SDS011;15375;48.540;9.268;2023-07-20T01:18:26;3.30;;;3.00;;
1344;SDS011;15375;48.540;9.268;2023-07-20T01:20:53;2.73;;;2.30;;
1344;SDS011;15375;48.540;9.268;2023-07-20T01:23:31;3.00;;;2.77;;
1344;SDS011;15375;48.540;9.268;2023-07-20T01:31:47;4.40;;;3.50;;
1344;SDS011;15375;48.540;9.268;2023-07-20T01:34:17;3.37;;;3.07;;
1344;SDS011;15375;48.540;9.268;2023-07-20T01:36:43;3.20;;;2.90;;
1344;SDS011;15375;48.540;9.268;2023-07-20T01:39:10;3.90;;;2.50;;
1344;SDS011;15375;48.540;9.268;2023-07-20T01:41:35;3.23;;;2.97;;
1344;SDS011;15375;48.540;9.268;2023-07-20T01:44:03;3.13;;;2.50;;
1344;SDS011;15375;48.540;9.268;2023-07-20T01:46:28;4.03;;;3.63;;
1344;SDS011;15375;48.540;9.268;2023-07-20T01:48:54;3.63;;;2.83;;
1344;SDS011;15375;48.540;9.268;2023-07-20T01:51:19;3.20;;;2.90;;
1344;SDS011;15375;48.540;9.268;2023-07-20T01:53:45;4.53;;;2.83;;
1344;SDS011;15375;48.540;9.268;2023-07-20T01:56:10;3.17;;;2.90;;
1344;SDS011;15375;48.540;9.268;2023-07-20T01:58:37;3.00;;;2.70;;
1344;SDS011;15375;48.540;9.268;2023-07-20T02:01:02;4.77;;;3.17;;
1344;SDS011;15375;48.540;9.268;2023-07-20T02:03:28;3.33;;;2.93;;
1344;SDS011;15375;48.540;9.268;2023-07-20T02:05:53;4.53;;;3.40;;
1344;SDS011;15375;48.540;9.268;2023-07-20T02:08:18;2.97;;;2.67;;
1344;SDS011;15375;48.540;9.268;2023-07-20T02:10:47;5.13;;;3.47;;
1344;SDS011;15375;48.540;9.268;2023-07-20T02:13:13;3.67;;;3.00;;
1344;SDS011;15375;48.540;9.268;2023-07-20T02:15:38;3.50;;;2.90;;
1344;SDS011;15375;48.540;9.268;2023-07-20T02:18:04;3.47;;;3.10;;
1344;SDS011;15375;48.540;9.268;2023-07-20T02:20:29;3.97;;;2.90;;
1344;SDS011;15375;48.540;9.268;2023-07-20T02:22:55;4.83;;;3.17;;
1344;SDS011;15375;48.540;9.268;2023-07-20T02:25:21;2.90;;;2.60;;
1344;SDS011;15375;48.540;9.268;2023-07-20T02:27:46;4.43;;;3.20;;
1344;SDS011;15375;48.540;9.268;2023-07-20T02:30:12;4.63;;;3.30;;
1344;SDS011;15375;48.540;9.268;2023-07-20T02:32:38;3.83;;;3.13;;
1344;SDS011;15375;48.540;9.268;2023-07-20T02:35:03;4.80;;;3.07;;
1344;SDS011;15375;48.540;9.268;2023-07-20T02:37:29;3.57;;;2.87;;
1344;SDS011;15375;48.540;9.268;2023-07-20T02:39:54;3.90;;;3.50;;
1344;SDS011;15375;48.540;9.268;2023-07-20T02:42:20;5.03;;;2.77;;
1344;SDS011;15375;48.540;9.268;2023-07-20T02:44:47;3.87;;;3.23;;
1344;SDS011;15375;48.540;9.268;2023-07-20T02:47:13;3.73;;;3.13;;
1344;SDS011;15375;48.540;9.268;2023-07-20T02:49:38;4.47;;;3.13;;
1344;SDS011;15375;48.540;9.268;2023-07-20T02:52:04;3.57;;;3.27;;
1344;SDS011;15375;48.540;9.268;2023-07-20T02:54:30;3.40;;;3.10;;
1344;SDS011;15375;48.540;9.268;2023-07-20T02:56:55;3.97;;;3.10;;
1344;SDS011;15375;48.540;9.268;2023-07-20T02:59:21;5.47;;;3.00;;
1344;SDS011;15375;48.540;9.268;2023-07-20T03:01:46;7.43;;;2.93;;
1344;SDS011;15375;48.540;9.268;2023-07-20T03:04:11;3.57;;;2.97;;
1344;SDS011;15375;48.540;9.268;2023-07-20T03:06:37;3.67;;;3.17;;
1344;SDS011;15375;48.540;9.268;2023-07-20T03:09:02;3.17;;;2.90;;
1344;SDS011;15375;48.540;9.268;2023-07-20T03:11:28;5.13;;;3.07;;
1344;SDS011;15375;48.540;9.268;2023-07-20T03:13:54;3.17;;;2.93;;
1344;SDS011;15375;48.540;9.268;2023-07-20T03:16:20;3.63;;;2.90;;
1344;SDS011;15375;48.540;9.268;2023-07-20T03:18:45;4.50;;;3.40;;
1344;SDS011;15375;48.540;9.268;2023-07-20T03:21:11;9.30;;;3.90;;
1344;SDS011;15375;48.540;9.268;2023-07-20T03:23:37;4.20;;;3.20;;
1344;SDS011;15375;48.540;9.268;2023-07-20T03:26:03;3.47;;;3.17;;
1344;SDS011;15375;48.540;9.268;2023-07-20T03:28:29;3.57;;;2.53;;
1344;SDS011;15375;48.540;9.268;2023-07-20T03:30:55;3.93;;;3.43;;
1344;SDS011;15375;48.540;9.268;2023-07-20T03:33:28;5.43;;;3.90;;
1344;SDS011;15375;48.540;9.268;2023-07-20T03:35:54;3.97;;;2.83;;
1344;SDS011;15375;48.540;9.268;2023-07-20T03:38:20;3.47;;;3.17;;
1344;SDS011;15375;48.540;9.268;2023-07-20T03:40:56;3.67;;;3.13;;
1344;SDS011;15375;48.540;9.268;2023-07-20T03:43:24;6.33;;;3.20;;
1344;SDS011;15375;48.540;9.268;2023-07-20T03:45:50;3.53;;;3.23;;
1344;SDS011;15375;48.540;9.268;2023-07-20T03:48:17;3.63;;;3.03;;
1344;SDS011;15375;48.540;9.268;2023-07-20T03:50:46;3.77;;;3.40;;
1344;SDS011;15375;48.540;9.268;2023-07-20T03:53:13;3.40;;;2.93;;
1344;SDS011;15375;48.540;9.268;2023-07-20T03:55:40;4.80;;;3.37;;
1344;SDS011;15375;48.540;9.268;2023-07-20T03:58:06;5.10;;;3.60;;
1344;SDS011;15375;48.540;9.268;2023-07-20T04:00:35;3.77;;;3.33;;
1344;SDS011;15375;48.540;9.268;2023-07-20T04:03:00;3.87;;;2.67;;
1344;SDS011;15375;48.540;9.268;2023-07-20T04:05:26;6.57;;;3.17;;
1344;SDS011;15375;48.540;9.268;2023-07-20T04:07:51;3.27;;;2.90;;
1344;SDS011;15375;48.540;9.268;2023-07-20T04:10:17;4.63;;;3.07;;
1344;SDS011;15375;48.540;9.268;2023-07-20T04:12:43;5.17;;;2.77;;
1344;SDS011;15375;48.540;9.268;2023-07-20T04:15:09;3.57;;;3.27;;
1344;SDS011;15375;48.540;9.268;2023-07-20T04:17:35;3.30;;;3.00;;
1344;SDS011;15375;48.540;9.268;2023-07-20T04:20:00;4.47;;;3.57;;
1344;SDS011;15375;48.540;9.268;2023-07-20T04:22:26;4.20;;;2.90;;
1344;SDS011;15375;48.540;9.268;2023-07-20T04:24:52;4.10;;;2.90;;
1344;SDS011;15375;48.540;9.268;2023-07-20T04:27:17;6.30;;;3.13;;
1344;SDS011;15375;48.540;9.268;2023-07-20T04:29:43;2.80;;;2.57;;
1344;SDS011;15375;48.540;9.268;2023-07-20T04:32:08;4.10;;;2.70;;
1344;SDS011;15375;48.540;9.268;2023-07-20T04:34:33;4.67;;;2.90;;
1344;SDS011;15375;48.540;9.268;2023-07-20T04:37:02;2.97;;;2.77;;
1344;SDS011;15375;48.540;9.268;2023-07-20T04:39:28;3.80;;;3.40;;
1344;SDS011;15375;48.540;9.268;2023-07-20T04:41:53;4.27;;;3.10;;
1344;SDS011;15375;48.540;9.268;2023-07-20T04:44:19;4.60;;;3.10;;
1344;SDS011;15375;48.540;9.268;2023-07-20T04:46:44;3.87;;;2.80;;
1344;SDS011;15375;48.540;9.268;2023-07-20T04:49:09;3.40;;;3.17;;
1344;SDS011;15375;48.540;9.268;2023-07-20T04:51:37;3.90;;;2.80;;
1344;SDS011;15375;48.540;9.268;2023-07-20T04:54:03;4.37;;;3.30;;
1344;SDS011;15375;48.540;9.268;2023-07-20T04:56:28;3.97;;;2.87;;
1344;SDS011;15375;48.540;9.268;2023-07-20T04:58:54;3.10;;;2.83;;
1344;SDS011;15375;48.540;9.268;2023-07-20T05:01:19;4.40;;;3.00;;
1344;SDS011;15375;48.540;9.268;2023-07-20T05:03:45;3.43;;;3.13;;
1344;SDS011;15375;48.540;9.268;2023-07-20T05:06:10;3.50;;;3.20;;
1344;SDS011;15375;48.540;9.268;2023-07-20T05:08:35;2.93;;;2.60;;
1344;SDS011;15375;48.540;9.268;2023-07-20T05:11:01;4.40;;;3.60;;
1344;SDS011;15375;48.540;9.268;2023-07-20T05:13:26;4.60;;;3.07;;
1344;SDS011;15375;48.540;9.268;2023-07-20T05:15:52;4.67;;;3.93;;
1344;SDS011;15375;48.540;9.268;2023-07-20T05:18:18;3.83;;;3.10;;
1344;SDS011;15375;48.540;9.268;2023-07-20T05:20:46;4.10;;;3.23;;
1344;SDS011;15375;48.540;9.268;2023-07-20T05:23:14;3.97;;;3.30;;
1344;SDS011;15375;48.540;9.268;2023-07-20T05:25:42;4.43;;;3.13;;
1344;SDS011;15375;48.540;9.268;2023-07-20T05:28:07;3.20;;;2.90;;
1344;SDS011;15375;48.540;9.268;2023-07-20T05:30:33;5.40;;;3.33;;
1344;SDS011;15375;48.540;9.268;2023-07-20T05:32:58;3.83;;;2.93;;
1344;SDS011;15375;48.540;9.268;2023-07-20T05:35:23;4.33;;;2.90;;
1344;SDS011;15375;48.540;9.268;2023-07-20T05:37:50;4.17;;;3.43;;
1344;SDS011;15375;48.540;9.268;2023-07-20T05:40:16;5.57;;;2.80;;
1344;SDS011;15375;48.540;9.268;2023-07-20T05:42:47;5.00;;;3.30;;
1344;SDS011;15375;48.540;9.268;2023-07-20T05:45:16;4.10;;;3.70;;
1344;SDS011;15375;48.540;9.268;2023-07-20T05:47:42;6.17;;;3.67;;
1344;SDS011;15375;48.540;9.268;2023-07-20T05:50:08;2.67;;;2.47;;
1344;SDS011;15375;48.540;9.268;2023-07-20T05:52:34;3.30;;;3.03;;
1344;SDS011;15375;48.540;9.268;2023-07-20T05:54:59;6.97;;;3.20;;
1344;SDS011;15375;48.540;9.268;2023-07-20T05:57:24;4.00;;;2.57;;
1344;SDS011;15375;48.540;9.268;2023-07-20T05:59:50;3.70;;;2.80;;
1344;SDS011;15375;48.540;9.268;2023-07-20T06:02:15;3.70;;;2.90;;
1344;SDS011;15375;48.540;9.268;2023-07-20T06:04:41;4.63;;;2.70;;
1344;SDS011;15375;48.540;9.268;2023-07-20T06:07:06;3.60;;;3.30;;
1344;SDS011;15375;48.540;9.268;2023-07-20T06:09:36;2.97;;;2.50;;
1344;SDS011;15375;48.540;9.268;2023-07-20T06:12:01;3.20;;;2.63;;
1344;SDS011;15375;48.540;9.268;2023-07-20T06:14:26;4.97;;;2.80;;
1344;SDS011;15375;48.540;9.268;2023-07-20T06:16:52;3.70;;;3.10;;
1344;SDS011;15375;48.540;9.268;2023-07-20T06:19:17;3.10;;;2.90;;
1344;SDS011;15375;48.540;9.268;2023-07-20T06:21:43;3.00;;;2.70;;
1344;SDS011;15375;48.540;9.268;2023-07-20T06:24:08;4.87;;;3.60;;
1344;SDS011;15375;48.540;9.268;2023-07-20T06:26:33;7.60;;;4.60;;
1344;SDS011;15375;48.540;9.268;2023-07-20T06:29:06;4.13;;;3.50;;
1344;SDS011;15375;48.540;9.268;2023-07-20T06:31:32;4.20;;;3.17;;
1344;SDS011;15375;48.540;9.268;2023-07-20T06:33:58;4.23;;;3.10;;
1344;SDS011;15375;48.540;9.268;2023-07-20T06:36:24;2.50;;;2.30;;
1344;SDS011;15375;48.540;9.268;2023-07-20T06:38:51;4.03;;;3.63;;
1344;SDS011;15375;48.540;9.268;2023-07-20T06:41:16;5.33;;;4.23;;
1344;SDS011;15375;48.540;9.268;2023-07-20T06:43:41;4.23;;;3.37;;
1344;SDS011;15375;48.540;9.268;2023-07-20T06:46:07;4.83;;;3.77;;
1344;SDS011;15375;48.540;9.268;2023-07-20T06:48:34;7.33;;;3.47;;
1344;SDS011;15375;48.540;9.268;2023-07-20T06:50:59;3.30;;;3.00;;
1344;SDS011;15375;48.540;9.268;2023-07-20T06:53:24;4.30;;;3.07;;
1344;SDS011;15375;48.540;9.268;2023-07-20T06:55:50;4.73;;;4.10;;
1344;SDS011;15375;48.540;9.268;2023-07-20T06:58:15;4.30;;;3.87;;
1344;SDS011;15375;48.540;9.268;2023-07-20T07:00:41;5.30;;;3.83;;
1344;SDS011;15375;48.540;9.268;2023-07-20T07:03:07;3.30;;;3.00;;
1344;SDS011;15375;48.540;9.268;2023-07-20T07:05:35;3.27;;;2.97;;
1344;SDS011;15375;48.540;9.268;2023-07-20T07:08:02;6.33;;;2.70;;
1344;SDS011;15375;48.540;9.268;2023-07-20T07:10:29;4.67;;;3.30;;
1344;SDS011;15375;48.540;9.268;2023-07-20T07:12:54;4.43;;;2.80;;
1344;SDS011;15375;48.540;9.268;2023-07-20T07:15:20;3.87;;;3.30;;
1344;SDS011;15375;48.540;9.268;2023-07-20T07:17:45;5.00;;;2.80;;
1344;SDS011;15375;48.540;9.268;2023-07-20T07:20:10;4.00;;;2.73;;
1344;SDS011;15375;48.540;9.268;2023-07-20T07:22:36;4.87;;;2.67;;
1344;SDS011;15375;48.540;9.268;2023-07-20T07:25:01;3.00;;;2.20;;
1344;SDS011;15375;48.540;9.268;2023-07-20T07:27:28;4.23;;;3.13;;
1344;SDS011;15375;48.540;9.268;2023-07-20T07:29:53;5.40;;;2.47;;
1344;SDS011;15375;48.540;9.268;2023-07-20T07:32:20;3.00;;;2.47;;
1344;SDS011;15375;48.540;9.268;2023-07-20T07:34:45;5.00;;;2.83;;
1344;SDS011;15375;48.540;9.268;2023-07-20T07:37:13;8.40;;;2.90;;
1344;SDS011;15375;48.540;9.268;2023-07-20T07:39:39;4.80;;;3.13;;
1344;SDS011;15375;48.540;9.268;2023-07-20T07:42:05;3.10;;;2.60;;
1344;SDS011;15375;48.540;9.268;2023-07-20T07:44:31;4.80;;;3.20;;
1344;SDS011;15375;48.540;9.268;2023-07-20T07:46:56;5.50;;;2.70;;
1344;SDS011;15375;48.540;9.268;2023-07-20T07:49:22;3.13;;;2.83;;
1344;SDS011;15375;48.540;9.268;2023-07-20T07:51:47;4.10;;;2.90;;
1344;SDS011;15375;48.540;9.268;2023-07-20T07:54:13;4.10;;;3.13;;
1344;SDS011;15375;48.540;9.268;2023-07-20T07:56:38;3.90;;;3.20;;
1344;SDS011;15375;48.540;9.268;2023-07-20T07:59:04;6.60;;;3.83;;
1344;SDS011;15375;48.540;9.268;2023-07-20T08:01:29;8.83;;;3.00;;
1344;SDS011;15375;48.540;9.268;2023-07-20T08:03:55;4.80;;;3.57;;
1344;SDS011;15375;48.540;9.268;2023-07-20T08:06:21;3.90;;;3.10;;
1344;SDS011;15375;48.540;9.268;2023-07-20T08:08:46;3.73;;;3.00;;
1344;SDS011;15375;48.540;9.268;2023-07-20T08:11:12;4.13;;;3.73;;
1344;SDS011;15375;48.540;9.268;2023-07-20T08:13:38;4.37;;;3.93;;
1344;SDS011;15375;48.540;9.268;2023-07-20T08:16:03;8.37;;;3.53;;
1344;SDS011;15375;48.540;9.268;2023-07-20T08:18:29;3.43;;;3.17;;
1344;SDS011;15375;48.540;9.268;2023-07-20T08:20:54;6.10;;;3.70;;
1344;SDS011;15375;48.540;9.268;2023-07-20T08:23:19;4.10;;;3.00;;
1344;SDS011;15375;48.540;9.268;2023-07-20T08:25:45;5.00;;;3.10;;
1344;SDS011;15375;48.540;9.268;2023-07-20T08:28:11;5.50;;;4.30;;
1344;SDS011;15375;48.540;9.268;2023-07-20T08:30:46;5.13;;;3.30;;
1344;SDS011;15375;48.540;9.268;2023-07-20T08:33:13;6.10;;;4.10;;
1344;SDS011;15375;48.540;9.268;2023-07-20T08:35:39;4.33;;;3.67;;
1344;SDS011;15375;48.540;9.268;2023-07-20T08:38:05;4.07;;;3.20;;
1344;SDS011;15375;48.540;9.268;2023-07-20T08:40:31;5.23;;;3.57;;
1344;SDS011;15375;48.540;9.268;2023-07-20T08:42:57;3.40;;;3.10;;
1344;SDS011;15375;48.540;9.268;2023-07-20T08:45:24;3.57;;;3.03;;
1344;SDS011;15375;48.540;9.268;2023-07-20T08:47:52;4.10;;;3.13;;
1344;SDS011;15375;48.540;9.268;2023-07-20T08:50:20;8.20;;;3.80;;
1344;SDS011;15375;48.540;9.268;2023-07-20T08:52:47;2.93;;;2.63;;
1344;SDS011;15375;48.540;9.268;2023-07-20T08:55:14;3.50;;;3.20;;
1344;SDS011;15375;48.540;9.268;2023-07-20T08:57:39;3.20;;;2.90;;
1344;SDS011;15375;48.540;9.268;2023-07-20T09:00:08;7.87;;;3.00;;
1344;SDS011;15375;48.540;9.268;2023-07-20T09:02:38;5.17;;;3.30;;
1344;SDS011;15375;48.540;9.268;2023-07-20T09:05:07;4.07;;;3.77;;
1344;SDS011;15375;48.540;9.268;2023-07-20T09:07:35;5.33;;;3.00;;
1344;SDS011;15375;48.540;9.268;2023-07-20T09:10:01;5.30;;;3.47;;
1344;SDS011;15375;48.540;9.268;2023-07-20T09:12:31;4.40;;;3.20;;
1344;SDS011;15375;48.540;9.268;2023-07-20T09:14:57;3.00;;;2.67;;
1344;SDS011;15375;48.540;9.268;2023-07-20T09:17:25;4.27;;;3.90;;
1344;SDS011;15375;48.540;9.268;2023-07-20T09:19:51;5.90;;;3.70;;
1344;SDS011;15375;48.540;9.268;2023-07-20T09:22:16;12.23;;;3.80;;
1344;SDS011;15375;48.540;9.268;2023-07-20T09:24:42;3.70;;;3.00;;
1344;SDS011;15375;48.540;9.268;2023-07-20T09:27:08;4.13;;;3.00;;
1344;SDS011;15375;48.540;9.268;2023-07-20T09:29:34;3.57;;;2.67;;
1344;SDS011;15375;48.540;9.268;2023-07-20T09:32:12;4.37;;;3.17;;
1344;SDS011;15375;48.540;9.268;2023-07-20T09:34:37;2.80;;;2.60;;
1344;SDS011;15375;48.540;9.268;2023-07-20T09:37:02;3.40;;;3.10;;
1344;SDS011;15375;48.540;9.268;2023-07-20T09:39:28;3.40;;;3.10;;
1344;SDS011;15375;48.540;9.268;2023-07-20T09:41:54;3.40;;;3.10;;
1344;SDS011;15375;48.540;9.268;2023-07-20T09:44:20;4.43;;;2.30;;
1344;SDS011;15375;48.540;9.268;2023-07-20T09:46:49;3.73;;;2.60;;
1344;SDS011;15375;48.540;9.268;2023-07-20T09:49:16;2.77;;;2.57;;
1344;SDS011;15375;48.540;9.268;2023-07-20T09:51:42;3.63;;;3.33;;
1344;SDS011;15375;48.540;9.268;2023-07-20T09:54:09;4.80;;;3.50;;
1344;SDS011;15375;48.540;9.268;2023-07-20T09:56:35;6.37;;;4.17;;
1344;SDS011;15375;48.540;9.268;2023-07-20T09:59:03;3.80;;;2.70;;
1344;SDS011;15375;48.540;9.268;2023-07-20T10:01:29;4.03;;;3.10;;
1344;SDS011;15375;48.540;9.268;2023-07-20T10:03:55;6.23;;;2.77;;
1344;SDS011;15375;48.540;9.268;2023-07-20T10:06:26;2.93;;;2.73;;
1344;SDS011;15375;48.540;9.268;2023-07-20T10:08:55;3.80;;;3.50;;
1344;SDS011;15375;48.540;9.268;2023-07-20T10:11:22;3.03;;;2.60;;
1344;SDS011;15375;48.540;9.268;2023-07-20T10:13:54;2.97;;;2.57;;
1344;SDS011;15375;48.540;9.268;2023-07-20T10:16:31;3.83;;;2.50;;
1344;SDS011;15375;48.540;9.268;2023-07-20T10:21:35;2.80;;;2.30;;
1344;SDS011;15375;48.540;9.268;2023-07-20T10:24:05;2.87;;;2.67;;
1344;SDS011;15375;48.540;9.268;2023-07-20T10:26:32;3.03;;;2.43;;
1344;SDS011;15375;48.540;9.268;2023-07-20T10:28:57;2.50;;;2.30;;
1344;SDS011;15375;48.540;9.268;2023-07-20T10:31:24;2.70;;;2.50;;
1344;SDS011;15375;48.540;9.268;2023-07-20T10:33:54;2.93;;;2.20;;
1344;SDS011;15375;48.540;9.268;2023-07-20T10:36:24;5.67;;;2.63;;
1344;SDS011;15375;48.540;9.268;2023-07-20T10:38:52;7.23;;;2.53;;
1344;SDS011;15375;48.540;9.268;2023-07-20T10:41:23;2.40;;;2.20;;
1344;SDS011;15375;48.540;9.268;2023-07-20T10:44:03;2.60;;;2.27;;
1344;SDS011;15375;48.540;9.268;2023-07-20T10:49:04;2.33;;;2.23;;
1344;SDS011;15375;48.540;9.268;2023-07-20T10:51:40;2.17;;;1.97;;
1344;SDS011;15375;48.540;9.268;2023-07-20T10:56:42;3.30;;;2.57;;
1344;SDS011;15375;48.540;9.268;2023-07-20T11:01:50;3.53;;;2.27;;
1344;SDS011;15375;48.540;9.268;2023-07-20T11:04:20;1.93;;;1.83;;
1344;SDS011;15375;48.540;9.268;2023-07-20T11:07:07;2.43;;;2.00;;
1344;SDS011;15375;48.540;9.268;2023-07-20T11:09:36;4.30;;;2.43;;
1344;SDS011;15375;48.540;9.268;2023-07-20T11:12:09;3.03;;;2.50;;
1344;SDS011;15375;48.540;9.268;2023-07-20T11:14:39;2.90;;;2.70;;
1344;SDS011;15375;48.540;9.268;2023-07-20T11:17:13;2.60;;;2.40;;
1344;SDS011;15375;48.540;9.268;2023-07-20T11:19:40;2.53;;;2.10;;
1344;SDS011;15375;48.540;9.268;2023-07-20T11:22:06;2.70;;;2.50;;
1344;SDS011;15375;48.540;9.268;2023-07-20T11:24:39;2.90;;;2.40;;
1344;SDS011;15375;48.540;9.268;2023-07-20T11:27:05;1.90;;;1.70;;
1344;SDS011;15375;48.540;9.268;2023-07-20T11:29:31;2.13;;;2.03;;
1344;SDS011;15375;48.540;9.268;2023-07-20T11:31:56;2.77;;;2.20;;
1344;SDS011;15375;48.540;9.268;2023-07-20T11:34:23;3.50;;;2.30;;
1344;SDS011;15375;48.540;9.268;2023-07-20T11:36:49;3.17;;;2.10;;
1344;SDS011;15375;48.540;9.268;2023-07-20T11:39:17;2.47;;;2.23;;
1344;SDS011;15375;48.540;9.268;2023-07-20T11:44:19;2.60;;;2.40;;
1344;SDS011;15375;48.540;9.268;2023-07-20T11:46:59;4.30;;;2.13;;
1344;SDS011;15375;48.540;9.268;2023-07-20T11:49:26;5.30;;;2.00;;
1344;SDS011;15375;48.540;9.268;2023-07-20T11:51:51;2.50;;;2.30;;
1344;SDS011;15375;48.540;9.268;2023-07-20T11:54:17;3.07;;;2.23;;
1344;SDS011;15375;48.540;9.268;2023-07-20T11:56:43;6.10;;;2.40;;
1344;SDS011;15375;48.540;9.268;2023-07-20T11:59:09;6.20;;;2.50;;
1344;SDS011;15375;48.540;9.268;2023-07-20T12:01:34;2.40;;;2.20;;
1344;SDS011;15375;48.540;9.268;2023-07-20T12:04:03;2.37;;;2.20;;
1344;SDS011;15375;48.540;9.268;2023-07-20T12:06:29;2.60;;;2.40;;
1344;SDS011;15375;48.540;9.268;2023-07-20T12:08:58;8.27;;;2.47;;
1344;SDS011;15375;48.540;9.268;2023-07-20T12:11:34;2.50;;;2.30;;
1344;SDS011;15375;48.540;9.268;2023-07-20T12:14:01;3.90;;;2.53;;
1344;SDS011;15375;48.540;9.268;2023-07-20T12:16:28;2.77;;;2.07;;
1344;SDS011;15375;48.540;9.268;2023-07-20T12:19:10;2.57;;;2.37;;
1344;SDS011;15375;48.540;9.268;2023-07-20T12:21:38;2.70;;;2.23;;
1344;SDS011;15375;48.540;9.268;2023-07-20T12:24:06;3.00;;;2.37;;
1344;SDS011;15375;48.540;9.268;2023-07-20T12:26:32;3.60;;;1.90;;
1344;SDS011;15375;48.540;9.268;2023-07-20T12:28:59;2.37;;;2.17;;
1344;SDS011;15375;48.540;9.268;2023-07-20T12:31:25;3.60;;;2.60;;
1344;SDS011;15375;48.540;9.268;2023-07-20T12:33:51;2.47;;;2.13;;
1344;SDS011;15375;48.540;9.268;2023-07-20T12:36:17;3.50;;;2.30;;
1344;SDS011;15375;48.540;9.268;2023-07-20T12:38:43;2.53;;;2.33;;
1344;SDS011;15375;48.540;9.268;2023-07-20T12:41:09;2.50;;;2.30;;
1344;SDS011;15375;48.540;9.268;2023-07-20T12:43:37;2.70;;;2.50;;
1344;SDS011;15375;48.540;9.268;2023-07-20T12:46:03;2.57;;;2.37;;
1344;SDS011;15375;48.540;9.268;2023-07-20T12:48:28;2.90;;;2.43;;
1344;SDS011;15375;48.540;9.268;2023-07-20T12:50:54;2.27;;;2.07;;
1344;SDS011;15375;48.540;9.268;2023-07-20T12:53:19;2.27;;;1.80;;
1344;SDS011;15375;48.540;9.268;2023-07-20T12:55:45;2.77;;;1.83;;
1344;SDS011;15375;48.540;9.268;2023-07-20T12:58:11;2.60;;;2.10;;
1344;SDS011;15375;48.540;9.268;2023-07-20T13:00:37;3.10;;;2.33;;
1344;SDS011;15375;48.540;9.268;2023-07-20T13:03:02;2.90;;;2.27;;
1344;SDS011;15375;48.540;9.268;2023-07-20T13:05:30;2.73;;;2.03;;
1344;SDS011;15375;48.540;9.268;2023-07-20T13:07:56;2.57;;;2.37;;
1344;SDS011;15375;48.540;9.268;2023-07-20T13:10:23;2.03;;;1.93;;
1344;SDS011;15375;48.540;9.268;2023-07-20T13:12:48;3.50;;;2.00;;
1344;SDS011;15375;48.540;9.268;2023-07-20T13:15:14;6.40;;;2.53;;
1344;SDS011;15375;48.540;9.268;2023-07-20T13:17:39;3.30;;;2.60;;
1344;SDS011;15375;48.540;9.268;2023-07-20T13:20:05;2.03;;;1.93;;
1344;SDS011;15375;48.540;9.268;2023-07-20T13:22:33;4.30;;;2.37;;
1344;SDS011;15375;48.540;9.268;2023-07-20T13:24:59;2.43;;;2.23;;
1344;SDS011;15375;48.540;9.268;2023-07-20T13:27:25;2.40;;;2.20;;
1344;SDS011;15375;48.540;9.268;2023-07-20T13:29:51;2.30;;;2.10;;
1344;SDS011;15375;48.540;9.268;2023-07-20T13:32:16;2.77;;;2.10;;
1344;SDS011;15375;48.540;9.268;2023-07-20T13:34:43;2.03;;;1.83;;
1344;SDS011;15375;48.540;9.268;2023-07-20T13:37:08;2.63;;;2.20;;
1344;SDS011;15375;48.540;9.268;2023-07-20T13:39:34;4.50;;;2.10;;
1344;SDS011;15375;48.540;9.268;2023-07-20T13:41:59;2.87;;;2.20;;
1344;SDS011;15375;48.540;9.268;2023-07-20T13:44:27;2.40;;;2.20;;
1344;SDS011;15375;48.540;9.268;2023-07-20T13:46:52;3.17;;;2.30;;
1344;SDS011;15375;48.540;9.268;2023-07-20T13:49:18;3.50;;;2.73;;
1344;SDS011;15375;48.540;9.268;2023-07-20T13:51:43;4.20;;;2.23;;
1344;SDS011;15375;48.540;9.268;2023-07-20T13:54:09;2.00;;;1.83;;
1344;SDS011;15375;48.540;9.268;2023-07-20T13:56:34;2.33;;;2.13;;
1344;SDS011;15375;48.540;9.268;2023-07-20T13:59:00;3.83;;;2.23;;
1344;SDS011;15375;48.540;9.268;2023-07-20T14:01:26;3.00;;;2.80;;
1344;SDS011;15375;48.540;9.268;2023-07-20T14:03:53;2.30;;;2.10;;
1344;SDS011;15375;48.540;9.268;2023-07-20T14:06:18;2.93;;;2.40;;
1344;SDS011;15375;48.540;9.268;2023-07-20T14:08:44;3.20;;;2.90;;
1344;SDS011;15375;48.540;9.268;2023-07-20T14:11:12;2.70;;;2.50;;
1344;SDS011;15375;48.540;9.268;2023-07-20T14:13:37;2.50;;;2.33;;
1344;SDS011;15375;48.540;9.268;2023-07-20T14:16:03;2.97;;;2.40;;
1344;SDS011;15375;48.540;9.268;2023-07-20T14:18:29;2.73;;;2.43;;
1344;SDS011;15375;48.540;9.268;2023-07-20T14:20:54;2.90;;;2.60;;
1344;SDS011;15375;48.540;9.268;2023-07-20T14:23:19;2.60;;;2.40;;
1344;SDS011;15375;48.540;9.268;2023-07-20T14:25:45;7.40;;;2.73;;
1344;SDS011;15375;48.540;9.268;2023-07-20T14:28:10;4.30;;;2.40;;
1344;SDS011;15375;48.540;9.268;2023-07-20T14:30:35;2.80;;;2.50;;
1344;SDS011;15375;48.540;9.268;2023-07-20T14:33:01;4.33;;;2.30;;
1344;SDS011;15375;48.540;9.268;2023-07-20T14:35:26;4.43;;;2.13;;
1344;SDS011;15375;48.540;9.268;2023-07-20T14:37:51;2.40;;;2.20;;
1344;SDS011;15375;48.540;9.268;2023-07-20T14:40:17;2.23;;;2.03;;
1344;SDS011;15375;48.540;9.268;2023-07-20T14:42:43;3.83;;;2.83;;
1344;SDS011;15375;48.540;9.268;2023-07-20T14:45:08;3.70;;;2.27;;
1344;SDS011;15375;48.540;9.268;2023-07-20T14:47:34;2.60;;;2.20;;
1344;SDS011;15375;48.540;9.268;2023-07-20T14:50:00;2.50;;;1.80;;
1344;SDS011;15375;48.540;9.268;2023-07-20T14:52:27;2.37;;;2.17;;
1344;SDS011;15375;48.540;9.268;2023-07-20T14:54:53;2.30;;;2.10;;
1344;SDS011;15375;48.540;9.268;2023-07-20T14:57:19;2.17;;;2.07;;
1344;SDS011;15375;48.540;9.268;2023-07-20T14:59:45;2.37;;;2.07;;
1344;SDS011;15375;48.540;9.268;2023-07-20T15:02:11;4.17;;;2.87;;
1344;SDS011;15375;48.540;9.268;2023-07-20T15:04:37;3.17;;;2.10;;
1344;SDS011;15375;48.540;9.268;2023-07-20T15:07:11;4.03;;;2.80;;
1344;SDS011;15375;48.540;9.268;2023-07-20T15:09:36;2.90;;;2.00;;
1344;SDS011;15375;48.540;9.268;2023-07-20T15:12:01;3.10;;;2.30;;
1344;SDS011;15375;48.540;9.268;2023-07-20T15:14:27;3.20;;;2.90;;
1344;SDS011;15375;48.540;9.268;2023-07-20T15:16:52;2.60;;;2.40;;